N267LC KTZR-KLCK
Flight info
| Callsign | N267LC |
|---|---|
| Flight time | N/A |
| Altitude | 3500 |
| Route | DIRECT TO KLCK |
| Aircraft | C150/L-V/N |
Departure
| Time | 2026-05-09 02:21 |
|---|---|
| Airport | Bolton Field (KTZR) |
Arrival
| Time | N/A |
|---|---|
| Airport | Rickenbacker International Airport (KLCK) |
| Time | Latitude | Longitude | Altitude | Speed | Heading |
|---|---|---|---|---|---|
| 2026-05-09 02:10 | 39.90409 | -83.13719 | 912 ft | 0 kts | 109° |
| 2026-05-09 02:16 | 39.90400 | -83.13700 | 912 ft | 5 kts | 162° |
| 2026-05-09 02:16 | 39.90380 | -83.13704 | 912 ft | 1 kts | 158° |
| 2026-05-09 02:16 | 39.90348 | -83.13640 | 911 ft | 15 kts | 117° |
| 2026-05-09 02:17 | 39.90400 | -83.13562 | 910 ft | 15 kts | 29° |
| 2026-05-09 02:17 | 39.90495 | -83.13492 | 911 ft | 16 kts | 31° |
| 2026-05-09 02:17 | 39.90593 | -83.13415 | 910 ft | 17 kts | 33° |
| 2026-05-09 02:17 | 39.90701 | -83.13324 | 907 ft | 19 kts | 32° |
| 2026-05-09 02:18 | 39.90771 | -83.13264 | 907 ft | 1 kts | 62° |
| 2026-05-09 02:18 | 39.90771 | -83.13263 | 907 ft | 0 kts | 65° |
| 2026-05-09 02:20 | 39.90772 | -83.13263 | 907 ft | 0 kts | 65° |
| 2026-05-09 02:20 | 39.90774 | -83.13214 | 907 ft | 15 kts | 109° |
| 2026-05-09 02:20 | 39.90700 | -83.13217 | 907 ft | 14 kts | 221° |
| 2026-05-09 02:20 | 39.90500 | -83.13378 | 909 ft | 61 kts | 212° |
| 2026-05-09 02:21 | 39.90094 | -83.13731 | 1040 ft | 77 kts | 215° |
| 2026-05-09 02:21 | 39.89643 | -83.14134 | 1257 ft | 79 kts | 213° |
| 2026-05-09 02:21 | 39.89176 | -83.14516 | 1481 ft | 78 kts | 212° |
| 2026-05-09 02:21 | 39.88693 | -83.14842 | 1680 ft | 82 kts | 198° |
| 2026-05-09 02:22 | 39.88088 | -83.14888 | 1794 ft | 91 kts | 179° |
| 2026-05-09 02:22 | 39.87462 | -83.14777 | 1893 ft | 94 kts | 175° |
| 2026-05-09 02:22 | 39.86816 | -83.14698 | 2007 ft | 91 kts | 181° |